Home > Products > Valid Products > MTR

000
SAUS41 KCAR 282357
MTRGNR
METAR KGNR 282356Z AUTO 30003KT M10/M19 A3049 RMK AO1 SLP360
T11001189 11039 21106 51013





000
SAUS41 KCAR 282258
MTRGNR
METAR KGNR 282256Z AUTO VRB04KT M08/M19 A3048 RMK AO1 SLP357
T10831189





000
SAUS41 KCAR 282258
MTRGNR
METAR KGNR 282256Z AUTO VRB04KT M08/M19 A3048 RMK AO1 SLP357
T10831189





000
SAUS41 KCAR 282157
MTRGNR
METAR KGNR 282156Z AUTO 33004KT M07/M19 A3046 RMK AO1 SLP349
T10671189





000
SAUS41 KCAR 282057
MTRGNR
METAR KGNR 282056Z AUTO 32009G16KT M06/M18 A3045 RMK AO1 SLP344
T10561183 55006





000
SAUS41 KCAR 282057
MTRGNR
METAR KGNR 282056Z AUTO 32009G16KT M06/M18 A3045 RMK AO1 SLP344
T10561183 55006





000
SAUS41 KCAR 281958
MTRGNR
METAR KGNR 281956Z AUTO VRB05KT M04/M19 A3045 RMK AO1 SLP342
T10391194





000
SAUS41 KCAR 281857
MTRGNR
METAR KGNR 281856Z AUTO VRB05KT M04/M19 A3045 RMK AO1 SLP343
T10441194





000
SAUS41 KCAR 281857
MTRGNR
METAR KGNR 281856Z AUTO VRB05KT M04/M19 A3045 RMK AO1 SLP343
T10441194





000
SAUS41 KCAR 281758
MTRGNR
METAR KGNR 281756Z AUTO VRB03KT M06/M19 A3047 RMK AO1 SLP350
T10561194 11056 21144 58008





000
SAUS41 KCAR 281758
MTRGNR
METAR KGNR 281756Z AUTO VRB03KT M06/M19 A3047 RMK AO1 SLP350
T10561194 11056 21144 58008





000
SAUS41 KCAR 281658
MTRGNR
METAR KGNR 281656Z AUTO 00000KT M07/M19 A3049 RMK AO1 SLP357
T10721194





000
SAUS41 KCAR 281658
MTRGNR
METAR KGNR 281656Z AUTO 00000KT M07/M19 A3049 RMK AO1 SLP357
T10721194





000
SAUS41 KCAR 281558
MTRGNR
METAR KGNR 281556Z AUTO VRB03KT M09/M21 A3050 RMK AO1 SLP364
T10891206





000
SAUS41 KCAR 281457
MTRGNR
METAR KGNR 281456Z AUTO 31005G14KT M10/M21 A3049 RMK AO1 SLP361
T11001206 51018





000
SAUS41 KCAR 281457
MTRGNR
METAR KGNR 281456Z AUTO 31005G14KT M10/M21 A3049 RMK AO1 SLP361
T11001206 51018





000
SAUS41 KCAR 281358
MTRGNR
METAR KGNR 281356Z AUTO VRB03KT M11/M21 A3049 RMK AO1 SLP359
T11111211





000
SAUS41 KCAR 281358
MTRGNR
METAR KGNR 281356Z AUTO VRB03KT M11/M21 A3049 RMK AO1 SLP359
T11111211





000
SAUS41 KCAR 281257
MTRGNR
METAR KGNR 281256Z AUTO VRB06KT M13/M21 A3048 RMK AO1 SLP358
T11331211





000
SAUS41 KCAR 281257
MTRGNR
METAR KGNR 281256Z AUTO VRB06KT M13/M21 A3048 RMK AO1 SLP358
T11331211





000
SAUS41 KCAR 281157
MTRGNR
METAR KGNR 281156Z AUTO VRB06G16KT M14/M22 A3044 RMK AO1 SLP345
T11441217 11144 21167 51021





000
SAUS41 KCAR 281157
MTRGNR
METAR KGNR 281156Z AUTO VRB06G16KT M14/M22 A3044 RMK AO1 SLP345
T11441217 11144 21167 51021





000
SAUS41 KCAR 281058
MTRGNR
METAR KGNR 281056Z AUTO 32009G17KT M16/M22 A3042 RMK AO1 SLP338
T11611217





000
SAUS41 KCAR 281058
MTRGNR
METAR KGNR 281056Z AUTO 32009G17KT M16/M22 A3042 RMK AO1 SLP338
T11611217





000
SAUS41 KCAR 280957
MTRGNR
METAR KGNR 280956Z AUTO 36006KT M16/M22 A3040 RMK AO1 SLP332
T11611222





000
SAUS41 KCAR 280957
MTRGNR
METAR KGNR 280956Z AUTO 36006KT M16/M22 A3040 RMK AO1 SLP332
T11611222





000
SAUS41 KCAR 280858
MTRGNR
METAR KGNR 280856Z AUTO 33012G19KT M16/M22 A3037 RMK AO1 SLP321
T11561217 51014





000
SAUS41 KCAR 280757
MTRGNR
METAR KGNR 280756Z AUTO 34010G14KT M15/M22 A3037 RMK AO1 SLP320
T11501222





000
SAUS41 KCAR 280658
MTRGNR
METAR KGNR 280656Z AUTO 32013KT M15/M23 A3035 RMK AO1 SLP314
T11501228





000
SAUS41 KCAR 280658
MTRGNR
METAR KGNR 280656Z AUTO 32013KT M15/M23 A3035 RMK AO1 SLP314
T11501228





000
SAUS41 KCAR 280557
MTRGNR
METAR KGNR 280556Z AUTO 31007G17KT M16/M23 A3033 RMK AO1 SLP306
T11561228 11144 21156 53017





000
SAUS41 KCAR 280557
MTRGNR
METAR KGNR 280556Z AUTO 31007G17KT M16/M23 A3033 RMK AO1 SLP306
T11561228 11144 21156 53017





000
SAUS41 KCAR 280458
MTRGNR
METAR KGNR 280456Z AUTO 32014G22KT M16/M23 A3031 RMK AO1 SLP299
T11561228 410891200





000
SAUS41 KCAR 280458
MTRGNR
METAR KGNR 280456Z AUTO 32014G22KT M16/M23 A3031 RMK AO1 SLP299
T11561228 410891200





000
SAUS41 KCAR 280357
MTRGNR
METAR KGNR 280356Z AUTO 31008KT M16/M23 A3029 RMK AO1 SLP295
T11561233





000
SAUS41 KCAR 280357
MTRGNR
METAR KGNR 280356Z AUTO 31008KT M16/M23 A3029 RMK AO1 SLP295
T11561233





000
SAUS41 KCAR 280258
MTRGNR
METAR KGNR 280256Z AUTO 31010G16KT M15/M23 A3028 RMK AO1 SLP291
T11501233 53017





000
SAUS41 KCAR 280258
MTRGNR
METAR KGNR 280256Z AUTO 31010G16KT M15/M23 A3028 RMK AO1 SLP291
T11501233 53017





000
SAUS41 KCAR 280157
MTRGNR
METAR KGNR 280156Z AUTO 30008KT 260V330 M15/M23 A3026 RMK AO1 SLP283
T11501233





000
SAUS41 KCAR 280157
MTRGNR
METAR KGNR 280156Z AUTO 30008KT 260V330 M15/M23 A3026 RMK AO1 SLP283
T11501233





000
SAUS41 KCAR 280058
MTRGNR
METAR KGNR 280056Z AUTO VRB06KT M15/M24 A3025 RMK AO1 SLP281
T11501239





000
SAUS41 KCAR 280058
MTRGNR
METAR KGNR 280056Z AUTO VRB06KT M15/M24 A3025 RMK AO1 SLP281
T11501239





000
SAUS41 KCAR 272357
MTRGNR
METAR KGNR 272356Z AUTO VRB03KT M14/M23 A3023 RMK AO1 SLP277
T11441233 11089 21144 53027





000
SAUS41 KCAR 272357
MTRGNR
METAR KGNR 272356Z AUTO VRB03KT M14/M23 A3023 RMK AO1 SLP277
T11441233 11089 21144 53027





000
SAUS41 KCAR 272258
MTRGNR
METAR KGNR 272256Z AUTO 00000KT M13/M23 A3019 RMK AO1 SLP264
T11331233





000
SAUS41 KCAR 272258
MTRGNR
METAR KGNR 272256Z AUTO 00000KT M13/M23 A3019 RMK AO1 SLP264
T11331233





000
SAUS41 KCAR 272157
MTRGNR
METAR KGNR 272156Z AUTO VRB03KT M11/M23 A3017 RMK AO1 SLP252
T11111233





000
SAUS41 KCAR 272157
MTRGNR
METAR KGNR 272156Z AUTO VRB03KT M11/M23 A3017 RMK AO1 SLP252
T11111233





000
SAUS41 KCAR 272057
MTRGNR
METAR KGNR 272056Z AUTO VRB04KT M10/M23 A3015 RMK AO1 SLP246
T11001233 53010





000
SAUS41 KCAR 271957
MTRGNR
METAR KGNR 271956Z AUTO M09/M24 A3014 RMK AO1 SLP241 T10941239





000
SAUS41 KCAR 271857
MTRGNR
METAR KGNR 271856Z AUTO VRB06KT M09/M24 A3013 RMK AO1 SLP238
T10941239





000
SAUS41 KCAR 271857
MTRGNR
METAR KGNR 271856Z AUTO VRB06KT M09/M24 A3013 RMK AO1 SLP238
T10941239





000
SAUS41 KCAR 271757
MTRGNR
METAR KGNR 271756Z AUTO 31009G16KT 260V330 M11/M24 A3012 RMK AO1
SLP234 T11061244 11100 21194 58000





000
SAUS41 KCAR 271757
MTRGNR
METAR KGNR 271756Z AUTO 31009G16KT 260V330 M11/M24 A3012 RMK AO1
SLP234 T11061244 11100 21194 58000





000
SAUS41 KCAR 271657
MTRGNR
METAR KGNR 271656Z AUTO 31010G17KT M11/M24 A3012 RMK AO1 SLP235
T11111239





000
SAUS41 KCAR 271657
MTRGNR
METAR KGNR 271656Z AUTO 31010G17KT M11/M24 A3012 RMK AO1 SLP235
T11111239





000
SAUS41 KCAR 271558
MTRGNR
METAR KGNR 271556Z AUTO 31009G23KT 280V340 M12/M24 A3012 RMK AO1
SLP237 T11171239





000
SAUS41 KCAR 271558
MTRGNR
METAR KGNR 271556Z AUTO 31009G23KT 280V340 M12/M24 A3012 RMK AO1
SLP237 T11171239





000
SAUS41 KCAR 271457
MTRGNR
METAR KGNR 271456Z AUTO VRB06G17KT M13/M23 A3012 RMK AO1 SLP235
T11331233 51013





000
SAUS41 KCAR 271457
MTRGNR
METAR KGNR 271456Z AUTO VRB06G17KT M13/M23 A3012 RMK AO1 SLP235
T11331233 51013





000
SAUS41 KCAR 271358
MTRGNR
METAR KGNR 271356Z AUTO 31008KT 270V340 M14/M23 A3011 RMK AO1 SLP235
T11441233





000
SAUS41 KCAR 271358
MTRGNR
METAR KGNR 271356Z AUTO 31008KT 270V340 M14/M23 A3011 RMK AO1 SLP235
T11441233





000
SAUS41 KCAR 271257
MTRGNR
METAR KGNR 271256Z AUTO 31004KT M17/M24 A3011 RMK AO1 SLP234
T11671239





000
SAUS41 KCAR 271157
MTRGNR
METAR KGNR 271156Z AUTO 00000KT M19/M24 A3008 RMK AO1 SLP225
T11941244 11178 21200 53024





000
SAUS41 KCAR 271058
MTRGNR
METAR KGNR 271056Z AUTO 34006KT M19/M24 A3005 RMK AO1 SLP214
T11941244





000
SAUS41 KCAR 270858
MTRGNR
METAR KGNR 270856Z AUTO 33008KT M19/M25 A3000 RMK AO1 SLP199
T11941250 50008





000
SAUS41 KCAR 270757
MTRGNR
METAR KGNR 270756Z AUTO 32007KT M18/M25 A3001 RMK AO1 SLP198
T11831250





000
SAUS41 KCAR 270658
MTRGNR
METAR KGNR 270656Z AUTO 31007KT M18/M24 A2999 RMK AO1 SLP194
T11831244





000
SAUS41 KCAR 270557
MTRGNR
METAR KGNR 270556Z AUTO 32007KT M18/M24 A2998 RMK AO1 SLP189
T11781244 11139 21178 53014





000
SAUS41 KCAR 270458
MTRGNR
METAR KGNR 270456Z AUTO 32008KT M17/M24 A2996 RMK AO1 SLP183
T11721244 411221206





000
SAUS41 KCAR 270458
MTRGNR
METAR KGNR 270456Z AUTO 32008KT M17/M24 A2996 RMK AO1 SLP183
T11721244 411221206





000
SAUS41 KCAR 270357
MTRGNR
METAR KGNR 270356Z AUTO 32007KT M17/M24 A2995 RMK AO1 SLP182
T11721244





000
SAUS41 KCAR 270258
MTRGNR
METAR KGNR 270256Z AUTO 33011G16KT M17/M24 A2994 RMK AO1 SLP177
T11721244 53012





000
SAUS41 KCAR 270157
MTRGNR
METAR KGNR 270156Z AUTO 34009KT M16/M24 A2993 RMK AO1 SLP175
T11611239





000
SAUS41 KCAR 270058
MTRGNR
METAR KGNR 270056Z AUTO 34009KT M15/M23 A2991 RMK AO1 SLP167
T11501233





000
SAUS41 KCAR 262357
MTRGNR
METAR KGNR 262356Z AUTO 33009KT M14/M24 A2990 RMK AO1 SLP164
T11391239 11122 21139 53010





000
SAUS41 KCAR 262357
MTRGNR
METAR KGNR 262356Z AUTO 33009KT M14/M24 A2990 RMK AO1 SLP164
T11391239 11122 21139 53010





000
SAUS41 KCAR 262258
MTRGNR
METAR KGNR 262256Z AUTO 33008KT M14/M24 A2989 RMK AO1 SLP159
T11391239





000
SAUS41 KCAR 262258
MTRGNR
METAR KGNR 262256Z AUTO 33008KT M14/M24 A2989 RMK AO1 SLP159
T11391239





000
SAUS41 KCAR 262057
MTRGNR
METAR KGNR 262056Z AUTO 35009KT M13/M24 A2987 RMK AO1 SLP153
T11281244 56008





000
SAUS41 KCAR 261958
MTRGNR
METAR KGNR 261956Z AUTO 35008KT M13/M24 A2987 RMK AO1 SLP152
T11281244





000
SAUS41 KCAR 261857
MTRGNR
METAR KGNR 261856Z AUTO 34008KT M13/M25 A2989 RMK AO1 SLP157
T11331250





000
SAUS41 KCAR 261758
MTRGNR
METAR KGNR 261756Z AUTO 35009KT M14/M26 A2990 RMK AO1 SLP160
T11391256 11133 21206 58019





000
SAUS41 KCAR 261758
MTRGNR
METAR KGNR 261756Z AUTO 35009KT M14/M26 A2990 RMK AO1 SLP160
T11391256 11133 21206 58019





000
SAUS41 KCAR 261657
MTRGNR
METAR KGNR 261656Z AUTO 32008KT 280V340 M14/M25 A2992 RMK AO1 SLP166
T11441250





000
SAUS41 KCAR 261558
MTRGNR
METAR KGNR 261556Z AUTO 34009KT M17/M26 A2994 RMK AO1 SLP174
T11671256





000
SAUS41 KCAR 261558
MTRGNR
METAR KGNR 261556Z AUTO 34009KT M17/M26 A2994 RMK AO1 SLP174
T11671256





000
SAUS41 KCAR 261458
MTRGNR
METAR KGNR 261456Z AUTO 33009KT M18/M26 A2995 RMK AO1 SLP180
T11781256 50009





000
SAUS41 KCAR 261458
MTRGNR
METAR KGNR 261456Z AUTO 33009KT M18/M26 A2995 RMK AO1 SLP180
T11781256 50009





000
SAUS41 KCAR 261400
MTRGNR
METAR KGNR 261356Z AUTO 35008KT M19/M26 A2996 RMK AO1 SLP181
T11941256





000
SAUS41 KCAR 261257
MTRGNR
METAR KGNR 261256Z AUTO 34011G19KT M21/M25 A2993 RMK AO1 SLP172
T12061250





000
SAUS41 KCAR 261257
MTRGNR
METAR KGNR 261256Z AUTO 34011G19KT M21/M25 A2993 RMK AO1 SLP172
T12061250





000
SAUS41 KCAR 261157
MTRGNR
METAR KGNR 261156Z AUTO 31008G18KT M21/M25 A2993 RMK AO1 SLP170
70001 T12061250 11156 21206 50006





000
SAUS41 KCAR 261157
MTRGNR
METAR KGNR 261156Z AUTO 31008G18KT M21/M25 A2993 RMK AO1 SLP170
70001 T12061250 11156 21206 50006





000
SAUS41 KCAR 261058
MTRGNR
METAR KGNR 261056Z AUTO 31008KT M21/M24 A2993 RMK AO1 SLP170
T12061244





000
SAUS41 KCAR 261058
MTRGNR
METAR KGNR 261056Z AUTO 31008KT M21/M24 A2993 RMK AO1 SLP170
T12061244





000
SAUS41 KCAR 260957
MTRGNR
METAR KGNR 260956Z AUTO VRB04KT M20/M24 A2992 RMK AO1 SLP166
T12001244





000
SAUS41 KCAR 260957
MTRGNR
METAR KGNR 260956Z AUTO VRB04KT M20/M24 A2992 RMK AO1 SLP166
T12001244





000
SAUS41 KCAR 260858
MTRGNR
METAR KGNR 260856Z AUTO VRB04KT M20/M24 A2991 RMK AO1 SLP160
T12001244 53030





000
SAUS41 KCAR 260858
MTRGNR
METAR KGNR 260856Z AUTO VRB04KT M20/M24 A2991 RMK AO1 SLP160
T12001244 53030





000
SAUS41 KCAR 260757
MTRGNR
METAR KGNR 260756Z AUTO VRB05KT M19/M24 A2987 RMK AO1 SLP146
T11891244





000
SAUS41 KCAR 260658
MTRGNR
METAR KGNR 260656Z AUTO VRB03KT M17/M24 A2985 RMK AO1 SLP140
T11721239





000
SAUS41 KCAR 260658
MTRGNR
METAR KGNR 260656Z AUTO VRB03KT M17/M24 A2985 RMK AO1 SLP140
T11721239





000
SAUS41 KCAR 260557
MTRGNR
METAR KGNR 260556Z AUTO VRB06KT M16/M23 A2981 RMK AO1 PK WND
31027/0512 SLP127 T11561233 11089 21156 53023





000
SAUS41 KCAR 260557
MTRGNR
METAR KGNR 260556Z AUTO VRB06KT M16/M23 A2981 RMK AO1 PK WND
31027/0512 SLP127 T11561233 11089 21156 53023





000
SAUS41 KCAR 260457
MTRGNR
METAR KGNR 260456Z AUTO 30011G20KT 260V330 M13/M19 A2976 RMK AO1
SLP106 T11331189 410441161





000
SAUS41 KCAR 260457
MTRGNR
METAR KGNR 260456Z AUTO 30011G20KT 260V330 M13/M19 A2976 RMK AO1
SLP106 T11331189 410441161





000
SAUS41 KCAR 260357
MTRGNR
METAR KGNR 260356Z AUTO VRB06KT M12/M19 A2974 RMK AO1 SLP100
T11171194





000
SAUS41 KCAR 260258
MTRGNR
METAR KGNR 260256Z AUTO VRB06KT M11/M19 A2974 RMK AO1 SLP102
T11111189 53036





000
SAUS41 KCAR 260157
MTRGNR
METAR KGNR 260156Z AUTO VRB05KT M11/M17 A2971 RMK AO1 SLP090
T11061172





000
SAUS41 KCAR 260058
MTRGNR
METAR KGNR 260056Z AUTO 29007KT 250V340 M09/M15 A2966 RMK AO1 SLP074
T10941150





000
SAUS41 KCAR 260058
MTRGNR
METAR KGNR 260056Z AUTO 29007KT 250V340 M09/M15 A2966 RMK AO1 SLP074
T10941150





    US Dept of Commerce
    National Oceanic and Atmospheric Administration
    National Weather Service
    1325 East West Highway
    Silver Spring, MD 20910
    Page Author: NWS Internet Services Team
Disclaimer
Information Quality
Credits
Glossary
Privacy Policy
Freedom of Information Act (FOIA)
About Us
Career Opportunities